Archers Lodge, North Carolina
Current Conditions -  °F | °C
As of 5:15 PM on Thursday 23 Oct 2014 (Local Time) from KJNX Reporting Station
Clear Clear  
Wind Chill: 68°   Ceiling: Unl
Heat Index: 68°   Visibility: 10mi
Dew Point: 46°   Wind: 5mph
Humidity: 46%   Direction: 280°W
Pressure: 29.91"   Gusts: NA
Location:  35.6101°N, 78.4715°W
Report Text: KJNX 232115Z AUTO 28004KT 10SM CLR 20/08 A2991 RMK AO2
Loading
Personal Weather Stations






























Interactive Weather Map
Tropical Storm Tracking
New forecast layout! Learn more

10-Day Weather Forecast

Advertisements
Track Severe Weather on mobile